Time,TemperatureF,DewpointF,PressureIn,WindDirection,WindDirectionDegrees,WindSpeedMPH,WindSpeedGustMPH,Humidity,HourlyPrecipIn,Conditions,Clouds,dailyrainin,SoftwareType,DateUTC
2013-10-05 00:01:00,70.7,66.6,30.01,NNE,22,0.0,-999.0,87,0.00,,,0.00,open2300 v1.10,2013-10-05 04:01:00,
2013-10-05 00:11:00,70.7,66.6,30.01,NNE,22,0.0,-999.0,87,0.00,,,0.00,open2300 v1.10,2013-10-05 04:11:00,
2013-10-05 00:21:00,70.5,66.4,30.02,NNE,22,0.0,-999.0,87,0.00,,,0.00,open2300 v1.10,2013-10-05 04:21:00,
2013-10-05 00:31:00,70.7,66.6,30.02,NNE,22,0.0,-999.0,87,0.00,,,0.00,open2300 v1.10,2013-10-05 04:31:00,
2013-10-05 00:41:00,70.9,66.8,30.02,NNE,22,0.0,-999.0,87,0.00,,,0.00,open2300 v1.10,2013-10-05 04:41:00,
2013-10-05 00:51:00,71.2,67.2,30.02,NNE,22,0.0,-999.0,87,0.00,,,0.00,open2300 v1.10,2013-10-05 04:51:00,
2013-10-05 01:11:00,71.6,67.5,30.02,NNE,22,0.0,-999.0,87,0.00,,,0.00,open2300 v1.10,2013-10-05 05:11:00,
2013-10-05 01:21:00,72.0,67.9,30.01,NNE,22,0.0,-999.0,87,0.00,,,0.00,open2300 v1.10,2013-10-05 05:21:00,
2013-10-05 01:31:00,72.0,67.5,30.02,NNE,22,0.0,-999.0,86,0.00,,,0.00,open2300 v1.10,2013-10-05 05:31:00,
2013-10-05 01:41:00,72.0,67.5,30.02,NNE,22,0.0,-999.0,86,0.00,,,0.00,open2300 v1.10,2013-10-05 05:41:00,
2013-10-05 01:51:00,71.8,67.3,30.02,NNE,22,0.0,-999.0,86,0.00,,,0.00,open2300 v1.10,2013-10-05 05:51:00,
2013-10-05 02:01:00,71.6,67.2,30.02,NNE,22,0.0,-999.0,86,0.00,,,0.00,open2300 v1.10,2013-10-05 06:01:00,
2013-10-05 02:11:00,71.4,67.0,30.02,NNE,22,0.0,-999.0,86,0.00,,,0.00,open2300 v1.10,2013-10-05 06:11:00,
2013-10-05 02:21:00,71.2,66.8,30.02,NNE,22,0.0,-999.0,86,0.00,,,0.00,open2300 v1.10,2013-10-05 06:21:00,
2013-10-05 02:31:00,71.2,67.2,30.02,NNE,22,0.0,-999.0,87,0.00,,,0.00,open2300 v1.10,2013-10-05 06:31:00,
2013-10-05 02:41:00,70.9,66.8,30.02,NNE,22,0.0,-999.0,87,0.00,,,0.00,open2300 v1.10,2013-10-05 06:41:00,
2013-10-05 02:51:00,70.9,66.8,30.02,NNE,22,0.0,-999.0,87,0.00,,,0.00,open2300 v1.10,2013-10-05 06:51:00,
2013-10-05 03:01:00,70.5,66.4,30.02,NNE,22,0.0,-999.0,87,0.00,,,0.00,open2300 v1.10,2013-10-05 07:01:00,
2013-10-05 03:11:00,70.3,66.2,30.02,NNE,22,0.0,-999.0,87,0.00,,,0.00,open2300 v1.10,2013-10-05 07:11:00,
2013-10-05 03:21:00,70.2,66.4,30.02,NNE,22,0.0,-999.0,88,0.00,,,0.00,open2300 v1.10,2013-10-05 07:21:00,
2013-10-05 03:31:00,70.0,66.2,30.01,NNE,22,0.0,-999.0,88,0.00,,,0.00,open2300 v1.10,2013-10-05 07:31:00,
2013-10-05 03:41:00,70.0,66.2,30.01,NNE,22,0.0,-999.0,88,0.00,,,0.00,open2300 v1.10,2013-10-05 07:41:00,
2013-10-05 03:51:00,69.8,66.4,30.01,NNE,22,0.0,-999.0,89,0.00,,,0.00,open2300 v1.10,2013-10-05 07:51:00,
2013-10-05 04:01:00,69.6,66.2,30.01,NNE,22,0.0,-999.0,89,0.00,,,0.00,open2300 v1.10,2013-10-05 08:01:00,
2013-10-05 04:11:00,69.6,66.2,30.00,NNE,22,0.0,-999.0,89,0.00,,,0.00,open2300 v1.10,2013-10-05 08:11:00,
2013-10-05 04:21:00,69.6,66.2,30.00,NNE,22,0.0,-999.0,89,0.00,,,0.00,open2300 v1.10,2013-10-05 08:21:00,
2013-10-05 04:31:00,69.6,66.2,30.00,NNE,22,0.0,-999.0,89,0.00,,,0.00,open2300 v1.10,2013-10-05 08:31:00,
2013-10-05 04:41:00,69.6,66.2,30.00,NNE,22,0.0,-999.0,89,0.00,,,0.00,open2300 v1.10,2013-10-05 08:41:00,
2013-10-05 04:51:00,69.6,66.2,30.00,NNE,22,0.0,-999.0,89,0.00,,,0.00,open2300 v1.10,2013-10-05 08:51:00,
2013-10-05 05:01:00,69.4,66.0,30.00,NNE,22,0.0,-999.0,89,0.00,,,0.00,open2300 v1.10,2013-10-05 09:01:00,
2013-10-05 05:11:00,69.3,65.9,29.99,NNE,22,0.0,-999.0,89,0.00,,,0.00,open2300 v1.10,2013-10-05 09:11:00,
2013-10-05 05:21:00,69.1,65.7,29.99,NNE,22,0.0,-999.0,89,0.00,,,0.00,open2300 v1.10,2013-10-05 09:21:00,
2013-10-05 05:31:00,68.9,65.5,30.00,NNE,22,0.0,-999.0,89,0.00,,,0.00,open2300 v1.10,2013-10-05 09:31:00,
2013-10-05 05:41:00,68.7,65.3,29.99,NNE,22,0.0,-999.0,89,0.00,,,0.00,open2300 v1.10,2013-10-05 09:41:00,
2013-10-05 05:51:00,68.7,65.3,30.00,NNE,22,0.0,-999.0,89,0.00,,,0.00,open2300 v1.10,2013-10-05 09:51:00,
2013-10-05 06:01:00,68.5,65.1,30.00,NNE,22,0.0,-999.0,89,0.00,,,0.00,open2300 v1.10,2013-10-05 10:01:00,
2013-10-05 06:11:00,68.5,65.1,30.00,NNE,22,0.0,-999.0,89,0.00,,,0.00,open2300 v1.10,2013-10-05 10:11:00,
2013-10-05 06:21:00,68.4,65.3,30.00,NNE,22,0.0,-999.0,90,0.00,,,0.00,open2300 v1.10,2013-10-05 10:21:00,
2013-10-05 06:31:00,68.2,65.1,30.00,NNE,22,0.0,-999.0,90,0.00,,,0.00,open2300 v1.10,2013-10-05 10:31:00,
2013-10-05 06:41:00,68.2,65.1,30.00,NNE,22,0.0,-999.0,90,0.00,,,0.00,open2300 v1.10,2013-10-05 10:41:00,
2013-10-05 06:51:00,68.2,65.1,30.00,NNE,22,0.0,-999.0,90,0.00,,,0.00,open2300 v1.10,2013-10-05 10:51:00,
2013-10-05 07:01:00,68.2,65.1,30.00,NNE,22,0.0,-999.0,90,0.00,,,0.00,open2300 v1.10,2013-10-05 11:01:00,
2013-10-05 07:11:00,68.2,65.4,29.99,NNE,22,0.0,-999.0,91,0.00,,,0.00,open2300 v1.10,2013-10-05 11:11:00,
2013-10-05 07:21:00,68.2,65.4,29.98,NNE,22,0.0,-999.0,91,0.00,,,0.00,open2300 v1.10,2013-10-05 11:21:00,
2013-10-05 07:31:00,68.0,65.2,29.98,NNE,22,0.0,-999.0,91,0.00,,,0.00,open2300 v1.10,2013-10-05 11:31:00,
2013-10-05 07:41:00,68.0,65.2,29.99,NNE,22,0.0,-999.0,91,0.00,,,0.00,open2300 v1.10,2013-10-05 11:41:00,
2013-10-05 07:51:00,67.8,65.1,29.98,NNE,22,0.0,-999.0,91,0.00,,,0.00,open2300 v1.10,2013-10-05 11:51:00,
2013-10-05 08:01:00,67.6,64.9,29.98,NNE,22,0.0,-999.0,91,0.00,,,0.00,open2300 v1.10,2013-10-05 12:01:00,
2013-10-05 08:11:00,67.6,64.9,29.99,NNE,22,0.0,-999.0,91,0.00,,,0.00,open2300 v1.10,2013-10-05 12:11:00,
2013-10-05 08:21:00,67.5,64.7,29.98,NNE,22,0.0,-999.0,91,0.00,,,0.00,open2300 v1.10,2013-10-05 12:21:00,
2013-10-05 08:31:00,67.6,64.9,29.98,NNE,22,0.0,-999.0,91,0.00,,,0.00,open2300 v1.10,2013-10-05 12:31:00,
2013-10-05 08:41:00,67.8,65.1,29.98,NNE,22,0.0,-999.0,91,0.00,,,0.00,open2300 v1.10,2013-10-05 12:41:00,
2013-10-05 08:51:00,68.2,65.7,29.98,NNE,22,0.0,-999.0,92,0.00,,,0.00,open2300 v1.10,2013-10-05 12:51:00,
2013-10-05 09:01:00,68.5,66.1,29.98,NNE,22,0.0,-999.0,92,0.00,,,0.00,open2300 v1.10,2013-10-05 13:01:00,
2013-10-05 09:11:00,68.9,66.4,29.98,NNE,22,0.0,-999.0,92,0.00,,,0.00,open2300 v1.10,2013-10-05 13:11:00,
2013-10-05 09:21:00,69.4,67.0,29.98,NNE,22,0.0,-999.0,92,0.00,,,0.00,open2300 v1.10,2013-10-05 13:21:00,
2013-10-05 09:31:00,70.0,67.8,29.98,East,90,0.0,-999.0,93,0.00,,,0.00,open2300 v1.10,2013-10-05 13:31:00,
2013-10-05 09:41:00,70.3,68.2,29.98,NNE,22,0.0,-999.0,93,0.00,,,0.00,open2300 v1.10,2013-10-05 13:41:00,
2013-10-05 09:51:00,70.9,68.7,29.98,NNE,22,0.0,-999.0,93,0.00,,,0.00,open2300 v1.10,2013-10-05 13:51:00,
2013-10-05 10:01:00,71.2,69.1,29.98,NNE,22,0.0,-999.0,93,0.00,,,0.00,open2300 v1.10,2013-10-05 14:01:00,
2013-10-05 10:11:00,71.8,69.6,29.99,North,0,0.0,-999.0,93,0.00,,,0.00,open2300 v1.10,2013-10-05 14:11:00,
2013-10-05 10:21:00,72.1,69.7,29.99,NNE,22,0.0,-999.0,92,0.00,,,0.00,open2300 v1.10,2013-10-05 14:21:00,
2013-10-05 10:31:00,72.5,69.8,29.99,NNE,22,0.0,-999.0,91,0.00,,,0.00,open2300 v1.10,2013-10-05 14:31:00,
2013-10-05 10:41:00,73.2,70.5,29.99,NNE,22,0.0,-999.0,91,0.00,,,0.00,open2300 v1.10,2013-10-05 14:41:00,
2013-10-05 10:51:00,73.8,70.7,29.99,NNE,22,0.0,-999.0,90,0.00,,,0.00,open2300 v1.10,2013-10-05 14:51:00,
2013-10-05 11:01:00,74.1,70.7,29.99,NNE,22,0.0,-999.0,89,0.00,,,0.00,open2300 v1.10,2013-10-05 15:01:00,
2013-10-05 11:11:00,74.5,70.4,29.99,NNE,22,0.0,-999.0,87,0.00,,,0.00,open2300 v1.10,2013-10-05 15:11:00,
2013-10-05 11:21:00,74.5,70.1,29.99,NNE,22,0.0,-999.0,86,0.00,,,0.00,open2300 v1.10,2013-10-05 15:21:00,
2013-10-05 11:31:00,74.5,70.1,29.99,North,0,0.0,-999.0,86,0.00,,,0.00,open2300 v1.10,2013-10-05 15:31:00,
2013-10-05 11:41:00,74.3,69.9,29.99,NNE,22,0.0,-999.0,86,0.00,,,0.00,open2300 v1.10,2013-10-05 15:41:00,
2013-10-05 11:51:00,74.8,70.4,29.98,North,0,0.0,-999.0,86,0.00,,,0.00,open2300 v1.10,2013-10-05 15:51:00,
2013-10-05 12:01:00,74.8,70.1,29.98,North,0,0.0,-999.0,85,0.00,,,0.00,open2300 v1.10,2013-10-05 16:01:00,
2013-10-05 12:11:00,74.7,69.9,29.97,NNE,22,0.0,-999.0,85,0.00,,,0.00,open2300 v1.10,2013-10-05 16:11:00,
2013-10-05 12:21:00,74.7,69.9,29.97,NNE,22,0.0,-999.0,85,0.00,,,0.00,open2300 v1.10,2013-10-05 16:21:00,
2013-10-05 12:31:00,74.5,69.7,29.97,NNE,22,0.0,-999.0,85,0.00,,,0.00,open2300 v1.10,2013-10-05 16:31:00,
2013-10-05 12:41:00,72.0,66.8,29.97,NNE,22,0.0,-999.0,84,0.18,,,0.18,open2300 v1.10,2013-10-05 16:41:00,
2013-10-05 12:51:00,70.3,65.9,29.97,NNE,22,0.0,-999.0,86,0.31,,,0.31,open2300 v1.10,2013-10-05 16:51:00,
2013-10-05 13:01:00,70.9,67.5,29.96,NNE,22,0.0,-999.0,89,0.31,,,0.31,open2300 v1.10,2013-10-05 17:01:00,
2013-10-05 13:11:00,72.0,68.9,29.96,NNE,22,0.0,-999.0,90,0.31,,,0.31,open2300 v1.10,2013-10-05 17:11:00,
2013-10-05 13:21:00,73.0,70.3,29.96,NNE,22,0.0,-999.0,91,0.31,,,0.31,open2300 v1.10,2013-10-05 17:21:00,
2013-10-05 13:31:00,73.6,70.8,29.96,NNE,22,0.0,-999.0,91,0.31,,,0.31,open2300 v1.10,2013-10-05 17:31:00,
2013-10-05 13:41:00,74.1,71.4,29.94,NNE,22,0.0,-999.0,91,0.00,,,0.31,open2300 v1.10,2013-10-05 17:41:00,
2013-10-05 13:51:00,74.5,71.4,29.94,NNE,22,0.0,-999.0,90,0.00,,,0.31,open2300 v1.10,2013-10-05 17:51:00,
2013-10-05 14:01:00,75.0,71.6,29.93,NNE,22,0.0,-999.0,89,0.00,,,0.31,open2300 v1.10,2013-10-05 18:01:00,
2013-10-05 14:11:00,75.4,71.6,29.93,North,0,0.0,-999.0,88,0.00,,,0.31,open2300 v1.10,2013-10-05 18:11:00,
2013-10-05 14:21:00,76.3,72.2,29.92,NNE,22,0.0,-999.0,87,0.00,,,0.31,open2300 v1.10,2013-10-05 18:21:00,
2013-10-05 14:31:00,76.8,71.2,29.91,North,0,0.0,-999.0,83,0.00,,,0.31,open2300 v1.10,2013-10-05 18:31:00,
2013-10-05 14:41:00,76.5,70.9,29.90,NNE,22,0.0,-999.0,83,0.00,,,0.31,open2300 v1.10,2013-10-05 18:41:00,
2013-10-05 14:51:00,77.0,71.1,29.90,North,0,0.0,-999.0,82,0.00,,,0.31,open2300 v1.10,2013-10-05 18:51:00,
2013-10-05 15:01:00,77.7,70.7,29.90,NNE,22,0.0,-999.0,79,0.00,,,0.31,open2300 v1.10,2013-10-05 19:01:00,
2013-10-05 15:11:00,77.2,70.1,29.90,NNE,22,0.0,-999.0,79,0.00,,,0.31,open2300 v1.10,2013-10-05 19:11:00,
2013-10-05 15:21:00,76.8,69.4,29.90,NNE,22,0.0,-999.0,78,0.00,,,0.31,open2300 v1.10,2013-10-05 19:21:00,
2013-10-05 15:31:00,76.6,69.6,29.91,NNE,22,0.0,-999.0,79,0.00,,,0.31,open2300 v1.10,2013-10-05 19:31:00,
2013-10-05 15:41:00,76.3,69.3,29.91,NNE,22,0.0,-999.0,79,0.00,,,0.31,open2300 v1.10,2013-10-05 19:41:00,
2013-10-05 15:51:00,75.0,67.0,29.91,East,90,0.0,-999.0,76,0.00,,,0.31,open2300 v1.10,2013-10-05 19:51:00,
2013-10-05 16:01:00,73.0,65.4,29.90,East,90,0.0,-999.0,77,0.00,,,0.31,open2300 v1.10,2013-10-05 20:01:00,
2013-10-05 16:11:00,71.4,64.6,29.92,East,90,0.0,-999.0,79,0.02,,,0.33,open2300 v1.10,2013-10-05 20:11:00,
2013-10-05 16:21:00,69.8,64.0,29.91,NNE,22,0.0,-999.0,82,0.04,,,0.35,open2300 v1.10,2013-10-05 20:21:00,
2013-10-05 16:31:00,68.7,63.7,29.91,NNE,22,0.0,-999.0,84,0.06,,,0.37,open2300 v1.10,2013-10-05 20:31:00,
2013-10-05 16:41:00,68.4,64.0,29.92,NNE,22,0.0,-999.0,86,0.06,,,0.37,open2300 v1.10,2013-10-05 20:41:00,
2013-10-05 16:51:00,67.6,63.6,29.92,North,0,0.0,-999.0,87,0.06,,,0.37,open2300 v1.10,2013-10-05 20:51:00,
2013-10-05 17:01:00,66.9,63.2,29.91,North,0,0.0,-999.0,88,0.06,,,0.37,open2300 v1.10,2013-10-05 21:01:00,
2013-10-05 17:11:00,66.7,63.0,29.92,NNE,22,0.0,-999.0,88,0.04,,,0.37,open2300 v1.10,2013-10-05 21:11:00,
2013-10-05 17:21:00,66.7,63.4,29.90,NNE,22,0.0,-999.0,89,0.04,,,0.39,open2300 v1.10,2013-10-05 21:21:00,
2013-10-05 17:31:00,66.7,63.4,29.89,NNE,22,0.0,-999.0,89,0.02,,,0.39,open2300 v1.10,2013-10-05 21:31:00,
2013-10-05 17:41:00,66.6,63.5,29.88,NNE,22,0.0,-999.0,90,0.04,,,0.41,open2300 v1.10,2013-10-05 21:41:00,
2013-10-05 17:51:00,66.6,63.5,29.87,NNE,22,0.0,-999.0,90,0.04,,,0.41,open2300 v1.10,2013-10-05 21:51:00,
2013-10-05 18:01:00,66.6,63.8,29.87,NNE,22,0.0,-999.0,91,0.06,,,0.43,open2300 v1.10,2013-10-05 22:01:00,
2013-10-05 18:11:00,66.7,64.0,29.89,NNE,22,0.0,-999.0,91,0.06,,,0.43,open2300 v1.10,2013-10-05 22:11:00,
2013-10-05 18:21:00,66.7,64.0,29.89,North,0,0.0,-999.0,91,0.04,,,0.43,open2300 v1.10,2013-10-05 22:21:00,
2013-10-05 18:31:00,66.9,64.2,29.89,NNE,22,0.0,-999.0,91,0.04,,,0.43,open2300 v1.10,2013-10-05 22:31:00,
2013-10-05 18:41:00,66.9,64.2,29.89,North,0,0.0,-999.0,91,0.02,,,0.43,open2300 v1.10,2013-10-05 22:41:00,
2013-10-05 18:51:00,66.9,64.2,29.88,NNE,22,0.0,-999.0,91,0.00,,,0.43,open2300 v1.10,2013-10-05 22:51:00,
2013-10-05 19:01:00,66.9,64.2,29.87,NNE,22,0.0,-999.0,91,0.00,,,0.43,open2300 v1.10,2013-10-05 23:01:00,
2013-10-05 19:11:00,67.1,64.3,29.88,NNE,22,0.0,-999.0,91,0.00,,,0.43,open2300 v1.10,2013-10-05 23:11:00,
2013-10-05 19:21:00,67.3,64.5,29.88,NNE,22,0.0,-999.0,91,0.00,,,0.43,open2300 v1.10,2013-10-05 23:21:00,
2013-10-05 19:31:00,67.5,64.7,29.88,NNE,22,0.0,-999.0,91,0.00,,,0.43,open2300 v1.10,2013-10-05 23:31:00,
2013-10-05 19:41:00,67.6,64.9,29.88,NNE,22,0.0,-999.0,91,0.00,,,0.43,open2300 v1.10,2013-10-05 23:41:00,
2013-10-05 19:51:00,67.8,65.1,29.88,NNE,22,0.0,-999.0,91,0.00,,,0.43,open2300 v1.10,2013-10-05 23:51:00,
2013-10-05 20:01:00,68.2,65.7,29.88,NNE,22,0.0,-999.0,92,0.00,,,0.43,open2300 v1.10,2013-10-06 00:01:00,
2013-10-05 20:11:00,68.2,65.7,29.88,NNE,22,0.0,-999.0,92,0.00,,,0.43,open2300 v1.10,2013-10-06 00:11:00,
2013-10-05 20:21:00,68.2,65.7,29.88,NNE,22,0.0,-999.0,92,0.00,,,0.43,open2300 v1.10,2013-10-06 00:21:00,
2013-10-05 20:31:00,68.0,65.6,29.89,NNE,22,0.0,-999.0,92,0.00,,,0.43,open2300 v1.10,2013-10-06 00:31:00,
2013-10-05 20:41:00,67.8,65.4,29.89,NNE,22,0.0,-999.0,92,0.00,,,0.43,open2300 v1.10,2013-10-06 00:41:00,
2013-10-05 20:51:00,67.3,64.8,29.88,NNE,22,0.0,-999.0,92,0.00,,,0.43,open2300 v1.10,2013-10-06 00:51:00,
2013-10-05 21:01:00,66.9,64.2,29.88,NNE,22,0.0,-999.0,91,0.00,,,0.43,open2300 v1.10,2013-10-06 01:01:00,
2013-10-05 21:11:00,66.7,64.0,29.89,East,90,0.0,-999.0,91,0.00,,,0.43,open2300 v1.10,2013-10-06 01:11:00,
2013-10-05 21:21:00,66.6,63.8,29.89,NNE,22,0.0,-999.0,91,0.00,,,0.43,open2300 v1.10,2013-10-06 01:21:00,
2013-10-05 21:31:00,66.6,63.8,29.89,NNE,22,0.0,-999.0,91,0.00,,,0.43,open2300 v1.10,2013-10-06 01:31:00,
2013-10-05 21:41:00,66.6,63.8,29.89,NNE,22,0.0,-999.0,91,0.00,,,0.43,open2300 v1.10,2013-10-06 01:41:00,
2013-10-05 21:51:00,66.6,63.8,29.88,NNE,22,0.0,-999.0,91,0.00,,,0.43,open2300 v1.10,2013-10-06 01:51:00,
2013-10-05 22:01:00,66.6,63.8,29.88,NNE,22,0.0,-999.0,91,0.00,,,0.43,open2300 v1.10,2013-10-06 02:01:00,
2013-10-05 22:11:00,66.6,63.8,29.88,NNE,22,0.0,-999.0,91,0.00,,,0.43,open2300 v1.10,2013-10-06 02:11:00,
2013-10-05 22:21:00,66.6,63.8,29.88,NNE,22,0.0,-999.0,91,0.00,,,0.43,open2300 v1.10,2013-10-06 02:21:00,
2013-10-05 22:31:00,66.6,63.8,29.89,NNE,22,0.0,-999.0,91,0.00,,,0.43,open2300 v1.10,2013-10-06 02:31:00,
2013-10-05 22:41:00,66.6,64.1,29.89,NNE,22,0.0,-999.0,92,0.00,,,0.43,open2300 v1.10,2013-10-06 02:41:00,
2013-10-05 22:51:00,66.6,64.1,29.89,NNE,22,0.0,-999.0,92,0.00,,,0.43,open2300 v1.10,2013-10-06 02:51:00,
2013-10-05 23:01:00,66.6,64.1,29.89,NNE,22,0.0,-999.0,92,0.00,,,0.43,open2300 v1.10,2013-10-06 03:01:00,
2013-10-05 23:11:00,66.6,64.1,29.89,NNE,22,0.0,-999.0,92,0.00,,,0.43,open2300 v1.10,2013-10-06 03:11:00,
2013-10-05 23:21:00,66.6,64.1,29.89,NNE,22,0.0,-999.0,92,0.00,,,0.43,open2300 v1.10,2013-10-06 03:21:00,
2013-10-05 23:31:00,66.4,63.9,29.88,North,0,0.0,-999.0,92,0.00,,,0.43,open2300 v1.10,2013-10-06 03:31:00,
2013-10-05 23:41:00,66.4,63.9,29.87,NNE,22,0.0,-999.0,92,0.00,,,0.43,open2300 v1.10,2013-10-06 03:41:00,
2013-10-05 23:51:00,66.4,63.9,29.87,NNE,22,0.0,-999.0,92,0.00,,,0.43,open2300 v1.10,2013-10-06 03:51:00,